Time;durP1;ratioP1;P1;durP2;ratioP2;P2;SDS_P1;SDS_P2;PMS_P1;PMS_P2;Temp;Humidity;BMP_temperature;BMP_pressure;BME280_temperature;BME280_humidity;BME280_pressure;Samples;Min_cycle;Max_cycle;Signal;HPM_P1;HPM_P2
2022/07/27 00:01:15;;;;;;;4.55;0.88;;;;;;;17.03;74.20;100846.97;5179356;28;20039;-75
2022/07/27 00:03:46;;;;;;;3.55;1.00;;;;;;;16.94;74.35;100836.97;5176991;28;20479;-75
2022/07/27 00:06:16;;;;;;;4.93;0.93;;;;;;;17.07;73.97;100845.84;5195579;28;20067;-75
2022/07/27 00:08:47;;;;;;;6.63;1.10;;;;;;;17.16;74.19;100842.69;5197041;28;20373;-76
2022/07/27 00:11:17;;;;;;;7.43;1.15;;;;;;;17.16;74.02;100850.63;5197662;28;20559;-74
2022/07/27 00:13:47;;;;;;;6.38;0.88;;;;;;;17.10;74.28;100856.25;5196431;28;20108;-75
2022/07/27 00:16:18;;;;;;;6.38;1.13;;;;;;;17.01;74.56;100851.50;5195613;28;20438;-76
2022/07/27 00:18:48;;;;;;;6.50;1.30;;;;;;;16.99;74.60;100848.94;5195680;28;20037;-76
2022/07/27 00:21:18;;;;;;;6.70;1.23;;;;;;;17.02;74.59;100843.50;5196027;28;20033;-76
2022/07/27 00:23:49;;;;;;;5.32;1.00;;;;;;;16.99;75.42;100846.28;5196067;28;20037;-76
2022/07/27 00:26:19;;;;;;;3.80;1.00;;;;;;;16.63;76.63;100844.91;5195493;28;20183;-76
2022/07/27 00:28:50;;;;;;;4.45;1.08;;;;;;;16.82;76.23;100840.28;5197159;28;20034;-75
2022/07/27 00:31:20;;;;;;;4.75;1.15;;;;;;;16.78;76.41;100839.59;5198054;28;20033;-76
2022/07/27 00:33:51;;;;;;;7.28;1.17;;;;;;;16.73;76.75;100854.00;5200804;28;20063;-76
2022/07/27 00:36:21;;;;;;;7.53;1.10;;;;;;;16.68;76.97;100853.41;5199073;28;20026;-76
2022/07/27 00:38:52;;;;;;;4.88;0.98;;;;;;;16.68;77.11;100852.53;5200807;28;20033;-76
2022/07/27 00:41:22;;;;;;;4.07;1.05;;;;;;;16.88;76.33;100856.63;5199475;28;20141;-76
2022/07/27 00:43:55;;;;;;;8.55;1.35;;;;;;;16.85;76.21;100855.94;5198776;28;20035;-75
2022/07/27 00:46:27;;;;;;;5.07;0.88;;;;;;;16.85;76.64;100855.94;5201847;28;20017;-75
2022/07/27 00:48:58;;;;;;;4.80;0.93;;;;;;;16.89;76.37;100860.13;5198621;28;20481;-75
2022/07/27 00:51:28;;;;;;;3.53;0.80;;;;;;;17.01;76.06;100864.72;5188995;28;20049;-75
2022/07/27 00:53:59;;;;;;;7.85;1.10;;;;;;;16.89;75.88;100854.84;5197740;28;20409;-75
2022/07/27 00:56:29;;;;;;;3.28;0.93;;;;;;;16.93;76.18;100861.63;5198009;28;20083;-75
2022/07/27 00:59:00;;;;;;;4.50;0.98;;;;;;;16.77;77.06;100856.38;5200360;28;20123;-74
2022/07/27 01:01:30;;;;;;;6.35;0.98;;;;;;;16.74;76.52;100858.34;5199042;28;20036;-75
2022/07/27 01:04:01;;;;;;;7.47;1.25;;;;;;;16.65;77.20;100861.50;5198655;28;20037;-75
2022/07/27 01:06:32;;;;;;;3.55;0.70;;;;;;;16.76;77.08;100859.09;5198669;28;20033;-73
2022/07/27 01:11:51;;;;;;;5.50;0.90;;;;;;;16.84;77.82;100854.25;5197374;28;20040;-75
2022/07/27 01:14:22;;;;;;;9.60;1.48;;;;;;;16.77;77.49;100863.47;5198897;28;20021;-75
2022/07/27 01:16:52;;;;;;;3.63;0.90;;;;;;;16.84;77.29;100851.59;5182008;28;20041;-75
2022/07/27 01:19:23;;;;;;;4.30;0.77;;;;;;;16.81;77.16;100860.53;5199647;28;20032;-75
2022/07/27 01:21:53;;;;;;;6.93;1.05;;;;;;;16.64;79.24;100862.44;5198823;28;20235;-75
2022/07/27 01:24:23;;;;;;;4.20;0.90;;;;;;;16.71;78.68;100860.31;5200073;28;20021;-73
2022/07/27 01:26:54;;;;;;;5.82;1.23;;;;;;;16.46;79.63;100871.38;5197825;28;20319;-75
2022/07/27 01:29:25;;;;;;;3.35;0.80;;;;;;;16.55;79.00;100855.03;5182023;28;20091;-75
2022/07/27 01:31:56;;;;;;;5.57;1.10;;;;;;;16.64;79.02;100853.66;5198177;28;20083;-74
2022/07/27 01:34:26;;;;;;;5.70;0.82;;;;;;;16.75;78.49;100851.28;5199820;28;20029;-75
2022/07/27 01:36:57;;;;;;;4.22;0.80;;;;;;;16.67;78.96;100854.34;5197934;28;20489;-75
2022/07/27 01:39:27;;;;;;;4.68;1.20;;;;;;;16.51;80.14;100853.50;5198412;28;20093;-75
2022/07/27 01:41:59;;;;;;;5.53;1.15;;;;;;;16.31;81.52;100858.13;5197340;28;20338;-75
2022/07/27 01:44:29;;;;;;;7.35;0.90;;;;;;;16.25;81.49;100856.66;5198081;28;20037;-75
2022/07/27 01:46:59;;;;;;;5.78;1.20;;;;;;;16.37;80.26;100863.13;5197641;28;20084;-75
2022/07/27 01:49:30;;;;;;;4.25;0.80;;;;;;;16.29;80.71;100860.00;5199680;28;20033;-75
2022/07/27 01:52:00;;;;;;;4.13;1.20;;;;;;;16.36;80.78;100861.41;5197818;28;20099;-75
2022/07/27 01:54:31;;;;;;;6.00;1.15;;;;;;;16.38;80.61;100855.09;5199590;28;20035;-75
2022/07/27 01:57:01;;;;;;;3.30;0.93;;;;;;;16.15;82.22;100854.59;5199163;28;20108;-75
2022/07/27 01:59:32;;;;;;;4.85;0.80;;;;;;;16.32;81.24;100857.19;5197797;28;20041;-75
2022/07/27 02:02:02;;;;;;;4.47;0.82;;;;;;;16.26;81.06;100860.16;5197642;28;20049;-75
2022/07/27 02:04:32;;;;;;;4.07;0.80;;;;;;;16.30;80.58;100857.28;5197282;28;20543;-75
2022/07/27 02:07:03;;;;;;;3.78;0.63;;;;;;;16.27;80.02;100852.19;5198816;28;20029;-75
2022/07/27 02:09:33;;;;;;;4.85;0.80;;;;;;;16.28;79.85;100853.88;5197686;28;20091;-75
2022/07/27 02:14:52;;;;;;;4.25;0.80;;;;;;;16.18;80.69;100862.38;5196057;28;20049;-75
2022/07/27 02:17:23;;;;;;;4.05;0.73;;;;;;;16.26;80.50;100855.75;5198735;28;20388;-75
2022/07/27 02:19:53;;;;;;;2.28;0.60;;;;;;;16.34;80.25;100848.25;5199215;28;20037;-75
2022/07/27 02:22:23;;;;;;;5.28;0.70;;;;;;;16.18;80.42;100857.94;5197386;28;20079;-75
2022/07/27 02:24:54;;;;;;;4.03;0.70;;;;;;;16.22;80.28;100864.75;5197180;28;20037;-75
2022/07/27 02:27:25;;;;;;;4.25;0.60;;;;;;;16.19;80.71;100858.81;5196490;28;20033;-75
2022/07/27 02:29:56;;;;;;;4.00;0.70;;;;;;;16.14;80.94;100860.81;5196654;28;20427;-75
2022/07/27 02:32:27;;;;;;;3.50;0.88;;;;;;;16.02;81.55;100856.22;5196556;28;20029;-75
2022/07/27 02:34:57;;;;;;;5.18;1.00;;;;;;;15.96;81.65;100861.78;5194367;28;20040;-75
2022/07/27 02:37:28;;;;;;;5.90;1.00;;;;;;;16.07;81.37;100859.44;5198075;28;20032;-75
2022/07/27 02:39:58;;;;;;;3.65;0.70;;;;;;;15.99;81.32;100859.84;5196607;28;20438;-75
2022/07/27 02:42:28;;;;;;;2.35;0.90;;;;;;;15.96;81.74;100862.66;5196886;28;20029;-75
2022/07/27 02:44:59;;;;;;;8.82;0.88;;;;;;;15.75;83.41;100871.69;5196762;28;20459;-75
2022/07/27 02:47:29;;;;;;;3.88;0.85;;;;;;;15.92;81.95;100865.53;5196482;28;20553;-75
2022/07/27 02:50:01;;;;;;;4.45;0.80;;;;;;;15.73;83.05;100862.16;5196865;28;20391;-75
2022/07/27 02:52:31;;;;;;;3.30;0.73;;;;;;;15.83;82.09;100864.22;5196308;28;20063;-75
2022/07/27 02:55:03;;;;;;;4.90;1.13;;;;;;;15.67;82.08;100867.75;5196794;28;20061;-75
2022/07/27 02:57:36;;;;;;;3.53;0.70;;;;;;;15.79;82.91;100870.59;5196148;28;20079;-75
2022/07/27 03:00:10;;;;;;;2.58;0.60;;;;;;;15.60;83.76;100863.72;5197961;28;20200;-71
2022/07/27 03:02:41;;;;;;;4.45;0.82;;;;;;;15.56;83.58;100868.28;5196645;28;20503;-74
2022/07/27 03:05:11;;;;;;;3.65;0.90;;;;;;;15.43;83.73;100871.63;5179750;28;20040;-75
2022/07/27 03:07:42;;;;;;;3.88;0.90;;;;;;;15.00;84.31;100866.78;5198226;28;20053;-75
2022/07/27 03:10:12;;;;;;;4.05;0.63;;;;;;;14.58;86.65;100870.59;5196834;28;20071;-75
2022/07/27 03:12:43;;;;;;;3.92;0.75;;;;;;;14.31;88.77;100870.13;5196788;28;20028;-75
2022/07/27 03:15:14;;;;;;;3.35;0.80;;;;;;;14.60;87.11;100874.00;5195649;28;20056;-75
2022/07/27 03:17:45;;;;;;;4.85;0.80;;;;;;;14.65;86.78;100874.63;5196034;28;20021;-75
2022/07/27 03:20:15;;;;;;;3.92;0.75;;;;;;;14.44;86.91;100873.03;5198047;28;20022;-75
2022/07/27 03:22:45;;;;;;;4.03;0.80;;;;;;;14.36;87.99;100867.25;5192138;28;20034;-75
2022/07/27 03:25:16;;;;;;;3.75;0.80;;;;;;;14.29;87.91;100871.09;5195949;28;20464;-75
2022/07/27 03:27:46;;;;;;;2.92;0.88;;;;;;;14.12;88.63;100879.69;5195469;28;20163;-72
2022/07/27 03:30:16;;;;;;;3.80;0.80;;;;;;;14.25;86.91;100874.81;5196012;28;20103;-75
2022/07/27 03:32:47;;;;;;;2.08;0.82;;;;;;;14.23;87.58;100881.91;5197630;28;20045;-72
2022/07/27 03:35:17;;;;;;;6.10;1.08;;;;;;;14.24;87.63;100881.81;5196012;28;20490;-75
2022/07/27 03:37:48;;;;;;;4.15;0.73;;;;;;;14.40;87.29;100876.72;5195855;28;20124;-74
2022/07/27 03:40:18;;;;;;;4.55;0.80;;;;;;;14.46;87.56;100884.31;5195929;28;20052;-75
2022/07/27 03:42:49;;;;;;;3.60;0.77;;;;;;;14.32;87.79;100882.34;5179839;28;20033;-75
2022/07/27 03:45:19;;;;;;;3.28;0.95;;;;;;;14.41;88.57;100888.94;5195964;28;20021;-75
2022/07/27 03:47:50;;;;;;;4.75;0.80;;;;;;;14.52;89.05;100892.78;5195778;28;20055;-75
2022/07/27 03:50:21;;;;;;;4.25;0.77;;;;;;;14.37;89.13;100890.00;5195869;28;20059;-75
2022/07/27 03:52:51;;;;;;;3.35;0.80;;;;;;;14.56;89.00;100891.72;5195052;28;20410;-75
2022/07/27 03:55:22;;;;;;;4.05;0.90;;;;;;;14.63;88.42;100893.13;5194821;28;20029;-75
2022/07/27 03:57:53;;;;;;;4.13;1.00;;;;;;;14.70;89.36;100893.69;5196151;28;20513;-75
2022/07/27 04:00:24;;;;;;;5.13;1.00;;;;;;;14.62;89.88;100890.56;5195444;28;20059;-74
2022/07/27 04:02:54;;;;;;;4.80;0.95;;;;;;;14.68;89.88;100887.66;5194959;28;20240;-75
2022/07/27 04:05:25;;;;;;;7.13;1.38;;;;;;;14.60;91.76;100887.16;5200135;28;20032;-75
2022/07/27 04:07:55;;;;;;;3.67;0.98;;;;;;;14.79;89.89;100898.53;5199756;28;20029;-75
2022/07/27 04:10:26;;;;;;;3.35;0.85;;;;;;;14.84;90.68;100898.22;5201362;28;20126;-75
2022/07/27 04:12:56;;;;;;;2.53;1.02;;;;;;;15.06;89.76;100898.91;5201697;28;20032;-75
2022/07/27 04:15:27;;;;;;;5.10;0.95;;;;;;;15.26;89.83;100895.28;5200996;28;20036;-75
2022/07/27 04:17:57;;;;;;;4.57;0.80;;;;;;;15.43;89.10;100897.97;5199921;28;20064;-75
2022/07/27 04:20:27;;;;;;;7.70;1.15;;;;;;;15.50;88.99;100902.03;5199944;28;20026;-75
2022/07/27 04:22:58;;;;;;;7.57;1.40;;;;;;;15.62;87.90;100888.19;5199647;28;20060;-75
2022/07/27 04:25:29;;;;;;;4.22;1.00;;;;;;;15.54;87.50;100893.84;5200835;28;20116;-74
2022/07/27 04:27:59;;;;;;;6.55;1.20;;;;;;;15.61;87.93;100902.31;5198690;28;20029;-75
2022/07/27 04:30:31;;;;;;;5.90;0.95;;;;;;;15.65;87.20;100893.31;5201227;28;20429;-75
2022/07/27 04:33:02;;;;;;;7.03;1.20;;;;;;;15.92;86.04;100890.13;5201608;28;20036;-74
2022/07/27 04:35:32;;;;;;;4.22;0.95;;;;;;;15.91;86.86;100895.47;5199345;28;20025;-75
2022/07/27 04:38:03;;;;;;;4.72;0.82;;;;;;;16.09;84.81;100889.22;5199321;28;20407;-75
2022/07/27 04:40:34;;;;;;;5.43;1.20;;;;;;;16.06;84.71;100886.75;5199331;28;20026;-76
2022/07/27 04:43:05;;;;;;;5.28;0.95;;;;;;;16.26;84.76;100887.41;5199640;28;20036;-75
2022/07/27 04:45:36;;;;;;;5.40;1.15;;;;;;;16.30;84.68;100890.72;5200847;28;20034;-75
2022/07/27 04:48:08;;;;;;;9.63;1.58;;;;;;;16.39;84.33;100887.63;5200439;28;20041;-73
2022/07/27 04:50:43;;;;;;;4.78;0.80;;;;;;;16.15;84.92;100897.66;5199458;28;20028;-75
2022/07/27 04:53:13;;;;;;;7.55;1.10;;;;;;;16.49;83.54;100891.44;5200881;28;20029;-75
2022/07/27 04:55:45;;;;;;;4.72;1.05;;;;;;;16.66;82.82;100889.59;5197641;28;20398;-75
2022/07/27 04:58:16;;;;;;;5.40;1.00;;;;;;;16.80;82.44;100877.31;5194439;28;20395;-75
2022/07/27 05:00:46;;;;;;;3.78;0.88;;;;;;;17.16;80.60;100874.41;5198946;28;20037;-75
2022/07/27 05:03:17;;;;;;;3.80;1.10;;;;;;;17.26;79.57;100871.13;5198206;28;20035;-76
2022/07/27 05:05:47;;;;;;;6.47;1.20;;;;;;;17.50;78.82;100887.38;5201334;28;20591;-75
2022/07/27 05:08:18;;;;;;;6.60;1.48;;;;;;;17.86;76.99;100882.53;5199860;28;20100;-75
2022/07/27 05:10:48;;;;;;;4.25;0.95;;;;;;;17.88;77.37;100875.34;5200967;28;20558;-75
2022/07/27 05:13:20;;;;;;;4.93;1.27;;;;;;;17.89;76.98;100872.63;5200027;28;20105;-76
2022/07/27 05:15:50;;;;;;;6.35;1.08;;;;;;;18.22;76.69;100877.63;5199640;28;20029;-75
2022/07/27 05:18:21;;;;;;;6.82;1.00;;;;;;;19.09;73.60;100884.31;5198525;28;20041;-76
2022/07/27 05:20:51;;;;;;;6.30;1.35;;;;;;;18.96;72.81;100883.41;5200164;28;20633;-74
2022/07/27 05:23:21;;;;;;;3.85;1.00;;;;;;;18.77;74.52;100898.78;5199934;28;20036;-76
2022/07/27 05:25:52;;;;;;;3.38;1.10;;;;;;;18.51;74.77;100901.38;5198552;28;20566;-75
2022/07/27 05:28:22;;;;;;;6.40;1.13;;;;;;;17.82;77.14;100903.03;5179115;28;20060;-75
2022/07/27 05:30:53;;;;;;;3.25;0.93;;;;;;;19.86;72.54;100895.88;5197905;28;20128;-75
2022/07/27 05:33:24;;;;;;;6.00;0.70;;;;;;;20.57;68.25;100894.38;5197726;28;20056;-78
2022/07/27 05:35:55;;;;;;;4.82;1.27;;;;;;;22.84;63.75;100900.66;5197053;28;20025;-76
2022/07/27 05:38:25;;;;;;;5.55;1.48;;;;;;;21.70;64.65;100902.75;5193559;28;20680;-75
2022/07/27 05:40:56;;;;;;;5.75;1.52;;;;;;;23.02;61.76;100906.34;5197011;28;20041;-76
2022/07/27 05:43:27;;;;;;;3.05;1.02;;;;;;;23.05;61.89;100908.75;5199838;28;20075;-76
2022/07/27 05:45:57;;;;;;;6.38;1.10;;;;;;;23.00;61.01;100910.94;5197595;28;20417;-76
2022/07/27 05:48:27;;;;;;;6.95;1.23;;;;;;;23.56;60.54;100915.97;5197339;28;20025;-75
2022/07/27 05:50:58;;;;;;;3.88;0.80;;;;;;;23.08;61.34;100925.34;5198573;28;20033;-75
2022/07/27 05:53:28;;;;;;;4.43;0.90;;;;;;;22.51;62.88;100928.31;5197986;28;20030;-75
2022/07/27 05:55:59;;;;;;;6.45;1.10;;;;;;;21.73;64.19;100934.47;5197728;28;20121;-76
2022/07/27 05:58:29;;;;;;;5.28;1.13;;;;;;;20.98;65.34;100948.06;5197182;28;21341;-75
2022/07/27 06:01:00;;;;;;;6.85;1.10;;;;;;;20.07;68.01;100947.50;5197803;28;20441;-75
2022/07/27 06:03:30;;;;;;;7.45;1.20;;;;;;;19.44;68.92;100954.44;5197904;28;20032;-75
2022/07/27 06:08:50;;;;;;;7.90;1.30;;;;;;;19.04;71.43;100955.31;5196060;28;20033;-75
2022/07/27 06:11:20;;;;;;;6.40;1.30;;;;;;;18.91;72.28;100959.69;5197410;28;20033;-75
2022/07/27 06:13:51;;;;;;;6.40;0.90;;;;;;;18.80;72.27;100961.31;5199502;28;20089;-75
2022/07/27 06:16:22;;;;;;;5.53;1.27;;;;;;;18.70;73.01;100959.34;5197711;28;20044;-75
2022/07/27 06:18:52;;;;;;;6.43;1.10;;;;;;;19.00;72.67;100956.47;5197545;28;20482;-75
2022/07/27 06:21:26;;;;;;;6.47;1.23;;;;;;;18.77;72.11;100958.84;5197577;28;20172;-75
2022/07/27 06:23:57;;;;;;;5.22;1.10;;;;;;;19.36;70.92;100958.53;5196931;28;20030;-75
2022/07/27 06:26:27;;;;;;;5.90;0.98;;;;;;;19.05;72.20;100958.78;5196710;28;20032;-74
2022/07/27 06:28:59;;;;;;;7.88;1.70;;;;;;;19.12;72.46;100963.59;5196044;28;20026;-75
2022/07/27 06:31:30;;;;;;;4.72;1.13;;;;;;;19.77;68.31;100968.13;5197149;28;20021;-75
2022/07/27 06:34:01;;;;;;;5.72;1.05;;;;;;;20.27;67.90;100957.59;5197190;28;20032;-76
2022/07/27 06:36:31;;;;;;;5.20;0.95;;;;;;;20.66;66.03;100964.59;5196444;28;20479;-73
2022/07/27 06:39:01;;;;;;;5.60;1.10;;;;;;;21.77;62.17;100952.72;5180380;28;20042;-76
2022/07/27 06:41:33;;;;;;;3.10;0.80;;;;;;;22.00;61.57;100958.97;5196870;28;20451;-77
2022/07/27 06:44:04;;;;;;;6.05;1.00;;;;;;;22.47;61.76;100954.38;5196988;28;20060;-76
2022/07/27 06:46:34;;;;;;;5.32;1.02;;;;;;;24.16;57.76;100958.91;5197144;28;20581;-73
2022/07/27 06:49:05;;;;;;;8.32;1.23;;;;;;;23.89;58.50;100961.25;5196603;28;20127;-76
2022/07/27 06:51:36;;;;;;;5.07;1.10;;;;;;;23.91;58.04;100955.78;5190033;28;20205;-76
2022/07/27 06:54:07;;;;;;;3.22;1.10;;;;;;;25.23;56.06;100951.13;5195729;28;20026;-76
2022/07/27 06:56:37;;;;;;;4.65;1.05;;;;;;;22.71;60.93;100957.75;5197580;28;20032;-75
2022/07/27 06:59:07;;;;;;;3.85;0.90;;;;;;;22.46;61.05;100952.66;5198375;28;20076;-75
2022/07/27 07:01:38;;;;;;;6.70;1.20;;;;;;;23.91;59.42;100956.59;5198354;28;20029;-76
2022/07/27 07:04:08;;;;;;;8.05;1.40;;;;;;;22.99;59.13;100958.09;5191802;28;20758;-76
2022/07/27 07:06:39;;;;;;;3.88;0.82;;;;;;;23.19;59.28;100952.00;5190889;28;20052;-76
2022/07/27 07:09:09;;;;;;;7.93;1.17;;;;;;;22.98;59.32;100948.41;5197629;28;20634;-76
2022/07/27 07:11:40;;;;;;;5.75;1.05;;;;;;;22.99;58.79;100952.75;5196744;28;20040;-76
2022/07/27 07:14:10;;;;;;;4.25;0.95;;;;;;;22.04;59.94;100949.78;5195122;28;20021;-75
2022/07/27 07:16:41;;;;;;;5.32;0.90;;;;;;;21.60;60.93;100954.94;5196563;28;20029;-75
2022/07/27 07:19:11;;;;;;;6.47;0.93;;;;;;;22.96;59.94;100955.69;5197752;28;20044;-72
2022/07/27 07:21:41;;;;;;;4.70;0.85;;;;;;;23.03;59.05;100951.53;5196495;28;20561;-76
2022/07/27 07:24:12;;;;;;;4.78;0.85;;;;;;;24.20;56.27;100949.66;5196494;28;20104;-76
2022/07/27 07:26:44;;;;;;;2.92;0.80;;;;;;;24.22;56.96;100942.34;5197433;28;20451;-76
2022/07/27 07:29:15;;;;;;;4.82;0.93;;;;;;;23.29;57.42;100944.97;5196026;28;20037;-75
2022/07/27 07:31:45;;;;;;;6.93;1.42;;;;;;;22.45;58.97;100950.13;5193440;28;20041;-76
2022/07/27 07:34:16;;;;;;;4.90;0.95;;;;;;;23.88;57.28;100948.88;5197910;28;20033;-76
2022/07/27 07:36:46;;;;;;;5.40;0.95;;;;;;;24.05;55.50;100939.44;5195692;28;20117;-76
2022/07/27 07:39:17;;;;;;;4.13;0.90;;;;;;;24.71;53.88;100938.97;5194390;28;20052;-76
2022/07/27 07:41:47;;;;;;;6.38;0.85;;;;;;;24.67;52.98;100938.38;5197183;28;20026;-76
2022/07/27 07:44:18;;;;;;;3.22;0.93;;;;;;;25.99;50.74;100931.56;5196706;28;20034;-76
2022/07/27 07:46:48;;;;;;;4.40;0.85;;;;;;;25.72;50.42;100934.09;5195323;28;20514;-76
2022/07/27 07:49:19;;;;;;;4.43;0.77;;;;;;;27.21;49.43;100935.63;5196141;28;20112;-77
2022/07/27 07:51:50;;;;;;;5.00;1.00;;;;;;;27.33;48.35;100933.56;5197478;28;20029;-76
2022/07/27 07:54:20;;;;;;;4.70;0.82;;;;;;;25.69;51.35;100939.72;5196274;28;20110;-76
2022/07/27 07:56:50;;;;;;;6.95;1.00;;;;;;;24.33;52.93;100944.09;5195293;28;20026;-76
2022/07/27 07:59:21;;;;;;;4.38;0.90;;;;;;;23.53;54.40;100948.28;5197840;28;20041;-75
2022/07/27 08:01:51;;;;;;;7.40;1.08;;;;;;;23.39;55.77;100945.88;5196357;28;20124;-76
2022/07/27 08:04:22;;;;;;;4.40;1.10;;;;;;;24.54;53.09;100942.28;5195871;28;20021;-75
2022/07/27 08:06:52;;;;;;;6.88;0.90;;;;;;;25.15;52.29;100942.06;5195273;28;20463;-75
2022/07/27 08:09:25;;;;;;;2.28;0.70;;;;;;;27.17;48.83;100928.88;5195962;28;20033;-76
2022/07/27 08:11:56;;;;;;;4.05;1.02;;;;;;;28.50;45.87;100935.72;5195768;28;20022;-74
2022/07/27 08:14:26;;;;;;;1.38;0.60;;;;;;;28.02;44.77;100930.03;5197376;28;20397;-76
2022/07/27 08:16:56;;;;;;;4.32;0.80;;;;;;;28.67;45.64;100936.66;5196266;28;20037;-76
2022/07/27 08:19:27;;;;;;;2.75;0.70;;;;;;;29.32;44.38;100939.44;5195914;28;20029;-76
2022/07/27 08:21:57;;;;;;;3.33;0.70;;;;;;;27.34;46.35;100938.78;5197510;28;20091;-76
2022/07/27 08:24:28;;;;;;;3.15;0.80;;;;;;;26.60;47.33;100947.09;5195905;28;20112;-75
2022/07/27 08:26:58;;;;;;;2.65;0.50;;;;;;;25.08;48.33;100949.78;5195683;28;20064;-75
2022/07/27 08:29:28;;;;;;;3.92;0.77;;;;;;;26.45;46.94;100940.47;5194548;28;20021;-76
2022/07/27 08:31:59;;;;;;;2.63;0.70;;;;;;;28.24;45.19;100937.56;5195180;28;20037;-76
2022/07/27 08:34:29;;;;;;;2.58;0.60;;;;;;;28.54;44.67;100936.25;5194949;28;20025;-76
2022/07/27 08:36:59;;;;;;;4.10;0.60;;;;;;;27.86;46.15;100951.41;5195289;28;20026;-76
2022/07/27 08:39:30;;;;;;;3.42;0.60;;;;;;;24.77;50.06;100955.31;5197046;28;20396;-75
2022/07/27 08:42:03;;;;;;;5.72;0.77;;;;;;;25.10;48.98;100955.84;5197492;28;20030;-76
2022/07/27 08:44:35;;;;;;;11.88;0.90;;;;;;;24.37;50.42;100951.72;5195921;28;20136;-76
2022/07/27 08:47:09;;;;;;;3.45;0.80;;;;;;;23.25;51.54;100951.53;5196831;28;20025;-75
2022/07/27 08:49:41;;;;;;;2.83;0.70;;;;;;;23.51;50.95;100952.88;5195880;28;20079;-75
2022/07/27 08:52:11;;;;;;;5.38;1.05;;;;;;;23.22;50.94;100948.25;5195986;28;20040;-75
2022/07/27 08:54:42;;;;;;;3.88;0.80;;;;;;;22.94;52.35;100949.63;5185570;28;20025;-75
2022/07/27 08:57:13;;;;;;;8.57;1.25;;;;;;;22.58;52.42;100956.19;5208843;28;20027;-75
2022/07/27 08:59:44;;;;;;;4.63;0.80;;;;;;;22.05;53.67;100955.00;5202534;28;20025;-74
2022/07/27 09:02:15;;;;;;;5.18;1.15;;;;;;;21.89;55.30;100951.81;5205469;28;20402;-75
2022/07/27 09:04:45;;;;;;;2.97;0.60;;;;;;;22.01;55.52;100945.56;5201477;28;20479;-75
2022/07/27 09:07:30;;;;;;;5.00;0.98;;;;;;;21.48;56.48;100947.84;5203677;28;20121;-74
2022/07/27 09:10:01;;;;;;;4.25;0.93;;;;;;;22.33;56.22;100948.38;5205316;28;20044;-73
2022/07/27 09:12:32;;;;;;;3.63;0.85;;;;;;;24.25;52.79;100942.06;5184872;28;20029;-73
2022/07/27 09:15:06;;;;;;;4.50;0.73;;;;;;;23.91;51.14;100937.09;5204635;28;20899;-74
2022/07/27 09:17:40;;;;;;;2.75;0.73;;;;;;;23.93;51.28;100941.34;5205106;28;20033;-74
2022/07/27 09:20:15;;;;;;;2.83;0.55;;;;;;;23.09;52.96;100943.06;5202509;28;20049;-73
2022/07/27 09:22:57;;;;;;;5.53;1.00;;;;;;;22.63;53.01;100946.84;5195701;28;20499;-73
2022/07/27 09:25:32;;;;;;;4.95;0.82;;;;;;;22.29;53.75;100949.59;5202411;28;20025;-72
2022/07/27 09:28:02;;;;;;;4.63;0.77;;;;;;;22.04;55.30;100944.44;5204048;28;20029;-73
2022/07/27 09:30:41;;;;;;;5.47;0.93;;;;;;;21.69;55.67;100943.63;5197982;28;20048;-73
2022/07/27 09:33:14;;;;;;;6.28;0.93;;;;;;;21.24;56.81;100950.50;5198129;28;20076;-73
2022/07/27 09:35:57;;;;;;;6.68;0.90;;;;;;;21.24;57.11;100947.03;5198102;28;20017;-74
2022/07/27 09:38:27;;;;;;;4.53;0.65;;;;;;;21.44;56.98;100949.06;5197587;28;20502;-74
2022/07/27 09:41:00;;;;;;;6.65;1.15;;;;;;;21.60;56.94;100944.28;5202381;28;20092;-75
2022/07/27 09:43:43;;;;;;;8.07;1.10;;;;;;;22.79;55.32;100929.53;5185685;28;20060;-74
2022/07/27 09:46:13;;;;;;;4.93;1.00;;;;;;;24.55;51.98;100925.25;5199216;28;20021;-74
2022/07/27 09:48:44;;;;;;;5.60;0.90;;;;;;;25.59;49.32;100915.63;5198831;28;20028;-75
2022/07/27 09:51:15;;;;;;;6.97;1.27;;;;;;;24.89;50.85;100917.63;5197724;28;20098;-73
2022/07/27 09:53:45;;;;;;;3.45;0.90;;;;;;;25.21;48.84;100923.66;5193913;28;20486;-74
2022/07/27 09:56:16;;;;;;;3.53;0.60;;;;;;;24.49;48.65;100923.06;5197442;28;20033;-75
2022/07/27 09:58:54;;;;;;;5.78;0.80;;;;;;;23.70;50.22;100939.69;5199271;28;20041;-73
2022/07/27 10:01:30;;;;;;;2.92;0.70;;;;;;;23.78;51.31;100925.72;5199034;28;20487;-73
2022/07/27 10:04:05;;;;;;;2.85;0.65;;;;;;;23.53;52.32;100921.56;5197756;28;20033;-74
2022/07/27 10:06:35;;;;;;;3.05;0.80;;;;;;;23.88;51.50;100927.50;5197185;28;20414;-71
2022/07/27 10:09:05;;;;;;;4.20;0.80;;;;;;;23.30;52.88;100930.66;5193539;28;20033;-74
2022/07/27 10:11:36;;;;;;;5.25;1.08;;;;;;;23.06;53.56;100926.44;5197012;28;20099;-74
2022/07/27 10:14:07;;;;;;;3.45;0.70;;;;;;;22.29;55.47;100936.28;5194791;28;20025;-75
2022/07/27 10:16:38;;;;;;;4.30;1.02;;;;;;;22.08;55.33;100936.13;5194289;28;20022;-74
2022/07/27 10:19:38;;;;;;;2.40;0.70;;;;;;;22.16;55.46;100938.19;5194885;28;20048;-74
2022/07/27 10:22:08;;;;;;;3.05;0.70;;;;;;;23.02;54.30;100917.84;5196267;28;20438;-73
2022/07/27 10:24:39;;;;;;;6.82;1.38;;;;;;;23.16;53.52;100922.94;5197739;28;20148;-73
2022/07/27 10:27:26;;;;;;;5.35;0.75;;;;;;;23.71;51.47;100919.22;5198977;28;20025;-74
2022/07/27 10:29:57;;;;;;;3.13;0.73;;;;;;;23.50;50.32;100921.84;5195613;28;20025;-74
2022/07/27 10:32:30;;;;;;;3.53;0.70;;;;;;;23.18;51.79;100915.66;5199439;28;20025;-73
2022/07/27 10:35:01;;;;;;;4.53;1.02;;;;;;;22.96;51.94;100923.69;5198483;28;20116;-73
2022/07/27 10:37:33;;;;;;;5.50;0.68;;;;;;;22.17;53.02;100923.91;5198188;28;20032;-74
2022/07/27 10:43:06;;;;;;;3.40;0.77;;;;;;;21.81;53.43;100929.41;5198236;28;20137;-74
2022/07/27 10:45:46;;;;;;;3.45;0.82;;;;;;;22.07;53.94;100917.59;5198578;28;20379;-73
2022/07/27 10:48:41;;;;;;;3.72;0.73;;;;;;;22.41;53.07;100914.88;5193867;28;20467;-74
2022/07/27 10:51:12;;;;;;;4.82;0.95;;;;;;;22.54;52.51;100920.94;5198249;28;20030;-73
2022/07/27 10:53:44;;;;;;;3.53;0.68;;;;;;;23.00;52.14;100909.13;5198940;28;20068;-71
2022/07/27 10:56:44;;;;;;;5.35;0.90;;;;;;;23.00;51.70;100903.78;5196661;28;20384;-74
2022/07/27 10:59:43;;;;;;;4.63;0.90;;;;;;;23.48;50.71;100913.13;5197033;28;20285;-74
2022/07/27 11:02:18;;;;;;;4.88;0.88;;;;;;;23.06;50.78;100907.78;5197870;28;20040;-74
2022/07/27 11:04:51;;;;;;;3.72;0.90;;;;;;;23.37;49.77;100906.97;5197600;28;20259;-75
2022/07/27 11:07:26;;;;;;;4.07;0.80;;;;;;;23.52;49.80;100908.38;5198611;28;20144;-74
2022/07/27 11:10:00;;;;;;;5.35;0.63;;;;;;;23.47;50.17;100906.09;5196818;28;20033;-74
2022/07/27 11:12:30;;;;;;;5.30;0.77;;;;;;;23.39;51.05;100911.19;5197011;28;20446;-74
2022/07/27 11:15:02;;;;;;;2.20;0.60;;;;;;;22.93;50.62;100899.94;5198315;28;20033;-74
2022/07/27 11:17:32;;;;;;;5.45;0.80;;;;;;;23.01;50.51;100916.13;5196173;28;20087;-74
2022/07/27 11:20:03;;;;;;;3.67;0.70;;;;;;;23.02;50.55;100909.84;5197559;28;20045;-74
2022/07/27 11:22:35;;;;;;;3.88;0.95;;;;;;;23.26;50.98;100905.22;5196743;28;20028;-74
2022/07/27 11:25:07;;;;;;;4.50;0.77;;;;;;;23.02;51.71;100904.50;5198363;28;20060;-74
2022/07/27 11:27:48;;;;;;;2.80;0.50;;;;;;;22.81;50.39;100902.75;5196601;28;20090;-74
2022/07/27 11:30:24;;;;;;;2.97;1.05;;;;;;;22.47;50.78;100898.41;5196675;28;20014;-72
2022/07/27 11:32:55;;;;;;;3.95;0.57;;;;;;;22.50;50.91;100906.16;5199609;28;20239;-74
2022/07/27 11:35:25;;;;;;;3.05;0.63;;;;;;;22.90;51.86;100905.53;5196843;28;20486;-74
2022/07/27 11:38:01;;;;;;;3.78;0.93;;;;;;;22.96;50.98;100897.00;5196572;28;20038;-74
2022/07/27 11:40:44;;;;;;;7.60;1.35;;;;;;;22.75;51.43;100903.22;5196801;28;20025;-74
2022/07/27 11:43:38;;;;;;;6.30;1.02;;;;;;;22.87;51.76;100894.25;5192945;28;20033;-74
2022/07/27 11:46:29;;;;;;;5.63;0.70;;;;;;;22.88;52.81;100894.09;5196273;28;20521;-74
2022/07/27 11:49:05;;;;;;;4.78;0.80;;;;;;;23.36;51.21;100902.63;5194531;28;20043;-75
2022/07/27 11:51:42;;;;;;;4.47;0.70;;;;;;;23.21;50.45;100899.38;5196362;28;20059;-74
2022/07/27 11:54:19;;;;;;;2.30;0.57;;;;;;;23.28;49.42;100897.91;5196487;28;20518;-74
2022/07/27 11:56:55;;;;;;;3.10;0.70;;;;;;;22.64;50.31;100897.06;5192555;28;20029;-74